Terminal Aerodrome Forecast
Issued by NWS

Home | Current Version | Previous Version | Text Only | Print | Product List | Glossary On
Versions: 1 2 3 4 5 6 7 8 9 10 11 12
000
FTUS42 KTBW 241700
TAFLAL
TAF
KLAL 241740Z 2418/2518 04010KT P6SM SCT040
     FM250100 01005KT P6SM SKC
     FM251500 01008KT P6SM FEW040=

USA.gov is the U.S. government's official web portal to all federal, state and local government web resources and services.